Abbott, New Mexico
Current Conditions -  °F | °C
As of 9:53 AM on Thursday 30 Oct 2014 (Local Time) from KRTN Reporting Station
Clear Clear  
Wind Chill: 14°   Ceiling: Unl
Heat Index: 14°   Visibility: 10mi
Dew Point: -6°   Wind: 13mph
Humidity: 26%   Direction: 30°NNE
Pressure: 30.4"   Gusts: NA
Location:  36.3883°N, 104.381°W
Report Text: KRTN 301553Z AUTO 03011KT 10SM CLR 14/M06 A3040 RMK AO2 SLP250 T01391056
Loading
Personal Weather Stations






























Interactive Weather Map
Tropical Storm Tracking
New forecast layout! Learn more

10-Day Weather Forecast

Advertisements
Track Severe Weather on mobile